createdAt,value
2024-03-14T00:01:51.393Z,11.86
2024-03-14T00:04:17.717Z,11.94
2024-03-14T00:06:43.911Z,11.93
2024-03-14T00:09:10.179Z,11.96
2024-03-14T00:11:36.433Z,11.89
2024-03-14T00:14:02.673Z,11.92
2024-03-14T00:16:28.875Z,11.92
2024-03-14T00:18:55.236Z,11.83
2024-03-14T00:21:21.557Z,11.92
2024-03-14T00:23:47.875Z,12.02
2024-03-14T00:26:14.056Z,11.95
2024-03-14T00:28:40.349Z,11.93
2024-03-14T00:31:06.812Z,11.96
2024-03-14T00:33:33.168Z,11.99
2024-03-14T00:35:59.359Z,11.96
2024-03-14T00:38:25.608Z,11.94
2024-03-14T00:40:52.143Z,11.98
2024-03-14T00:43:18.290Z,11.88
2024-03-14T00:45:44.513Z,11.94
2024-03-14T00:48:11.027Z,11.94
2024-03-14T00:50:37.277Z,12.00
2024-03-14T00:53:03.565Z,11.95
2024-03-14T00:55:29.721Z,12.00
2024-03-14T00:57:55.899Z,11.98
2024-03-14T01:00:22.167Z,11.90
2024-03-14T01:02:48.541Z,11.79
2024-03-14T01:05:14.880Z,11.90
2024-03-14T01:07:41.094Z,11.93
2024-03-14T01:10:07.671Z,11.96
2024-03-14T01:12:34.053Z,11.95
2024-03-14T01:15:00.376Z,11.92
2024-03-14T01:17:26.660Z,11.97
2024-03-14T01:19:52.828Z,12.00
2024-03-14T01:22:19.020Z,11.93
2024-03-14T01:24:45.186Z,11.94
2024-03-14T01:27:11.438Z,11.99
2024-03-14T01:29:37.684Z,12.00
2024-03-14T01:32:03.859Z,12.00
2024-03-14T01:34:30.049Z,11.99
2024-03-14T01:36:56.272Z,11.95
2024-03-14T01:39:22.789Z,11.92
2024-03-14T01:41:49.065Z,11.94
2024-03-14T01:44:15.261Z,11.92
2024-03-14T01:46:41.474Z,11.91
2024-03-14T01:49:07.721Z,11.87
2024-03-14T01:51:34.098Z,11.77
2024-03-14T01:54:00.457Z,11.75
2024-03-14T01:56:26.660Z,11.69
2024-03-14T01:58:52.953Z,11.69
2024-03-14T02:01:19.188Z,11.78
2024-03-14T02:03:45.391Z,11.74
2024-03-14T02:06:11.637Z,11.76
2024-03-14T02:08:37.805Z,11.84
2024-03-14T02:11:03.984Z,11.74
2024-03-14T02:13:30.241Z,11.76
2024-03-14T02:15:56.564Z,11.76
2024-03-14T02:18:22.809Z,11.72
2024-03-14T02:20:49.047Z,11.73
2024-03-14T02:23:15.322Z,11.73
2024-03-14T02:25:41.547Z,11.80
2024-03-14T02:28:07.789Z,11.76
2024-03-14T02:30:33.995Z,11.77
2024-03-14T02:33:00.485Z,11.74
2024-03-14T02:35:26.764Z,11.80
2024-03-14T02:37:53.032Z,11.72
2024-03-14T02:40:19.524Z,11.80
2024-03-14T02:42:45.727Z,11.83
2024-03-14T02:45:12.045Z,11.84
2024-03-14T02:47:38.643Z,11.76
2024-03-14T02:50:04.998Z,11.69
2024-03-14T02:52:31.235Z,11.62
2024-03-14T02:54:57.411Z,11.60
2024-03-14T02:57:23.874Z,11.55
2024-03-14T02:59:50.606Z,11.58
2024-03-14T03:02:16.802Z,11.58
2024-03-14T03:04:43.071Z,11.48
2024-03-14T03:07:09.267Z,11.45
2024-03-14T03:09:35.540Z,11.41
2024-03-14T03:12:01.868Z,11.42
2024-03-14T03:14:28.235Z,11.32
2024-03-14T03:16:54.544Z,11.35
2024-03-14T03:19:20.758Z,11.27
2024-03-14T03:21:46.977Z,11.21
2024-03-14T03:24:13.250Z,11.16
2024-03-14T03:26:39.460Z,11.16
2024-03-14T03:29:05.652Z,11.19
2024-03-14T03:31:32.093Z,11.09
2024-03-14T03:33:58.451Z,11.00
2024-03-14T03:36:24.900Z,11.02
2024-03-14T03:38:51.256Z,11.00
2024-03-14T03:41:17.775Z,10.91
2024-03-14T03:43:44.013Z,10.80
2024-03-14T03:46:10.293Z,10.80
2024-03-14T03:48:36.821Z,10.82
2024-03-14T03:51:03.182Z,10.80
2024-03-14T03:53:29.365Z,10.75
2024-03-14T03:55:55.545Z,10.74
2024-03-14T03:58:21.768Z,10.68
2024-03-14T04:00:47.996Z,10.65
2024-03-14T04:03:14.266Z,10.56
2024-03-14T04:05:40.923Z,10.61
2024-03-14T04:08:07.283Z,10.66
2024-03-14T04:10:33.558Z,10.56
2024-03-14T04:12:59.784Z,10.42
2024-03-14T04:15:26.253Z,10.44
2024-03-14T04:17:52.731Z,10.40
2024-03-14T04:20:18.943Z,10.18
2024-03-14T04:22:45.136Z,10.21
2024-03-14T04:25:11.454Z,10.22
2024-03-14T04:27:38.353Z,10.21
2024-03-14T04:30:04.716Z,10.24
2024-03-14T04:32:30.951Z,10.28
2024-03-14T04:34:57.123Z,10.16
2024-03-14T04:37:23.467Z,10.16
2024-03-14T04:39:49.659Z,10.20
2024-03-14T04:42:16.151Z,10.16
2024-03-14T04:44:42.357Z,10.16
2024-03-14T04:47:08.672Z,10.01
2024-03-14T04:49:34.880Z,10.01
2024-03-14T04:52:01.154Z,9.97
2024-03-14T04:54:27.579Z,9.95
2024-03-14T04:56:53.790Z,9.93
2024-03-14T04:59:19.980Z,9.95
2024-03-14T05:01:46.210Z,9.93
2024-03-14T05:04:12.576Z,9.96
2024-03-14T05:06:38.892Z,9.94
2024-03-14T05:09:05.255Z,9.90
2024-03-14T05:11:31.606Z,9.96
2024-03-14T05:13:58.170Z,9.93
2024-03-14T05:16:24.855Z,9.86
2024-03-14T05:18:51.219Z,9.82
2024-03-14T05:21:17.574Z,9.79
2024-03-14T05:23:43.769Z,9.77
2024-03-14T05:26:10.065Z,9.75
2024-03-14T05:28:36.343Z,9.84
2024-03-14T05:31:02.586Z,9.85
2024-03-14T05:33:28.917Z,9.82
2024-03-14T05:35:55.234Z,9.79
2024-03-14T05:38:21.440Z,9.70
2024-03-14T05:40:47.693Z,9.64
2024-03-14T05:43:13.970Z,9.68
2024-03-14T05:45:40.337Z,9.76
2024-03-14T05:48:06.909Z,9.74
2024-03-14T05:50:33.345Z,9.73
2024-03-14T05:52:59.601Z,9.69
2024-03-14T05:55:26.096Z,9.49
2024-03-14T05:57:52.295Z,9.60
2024-03-14T06:00:18.556Z,9.67
2024-03-14T06:02:44.989Z,9.76
2024-03-14T06:05:11.581Z,9.75
2024-03-14T06:07:37.976Z,9.69
2024-03-14T06:10:04.175Z,9.62
2024-03-14T06:12:30.481Z,9.64
2024-03-14T06:14:56.797Z,9.58
2024-03-14T06:17:23.098Z,9.69
2024-03-14T06:19:49.404Z,9.72
2024-03-14T06:22:15.733Z,9.80
2024-03-14T06:24:42.065Z,9.84
2024-03-14T06:27:08.339Z,9.69
2024-03-14T06:29:34.547Z,9.77
2024-03-14T06:32:00.879Z,9.74
2024-03-14T06:34:27.121Z,9.70
2024-03-14T06:36:53.353Z,9.72
2024-03-14T06:39:19.627Z,9.81
2024-03-14T06:41:45.871Z,9.93
2024-03-14T06:44:12.055Z,9.87
2024-03-14T06:46:38.393Z,9.78
2024-03-14T06:49:04.654Z,9.73
2024-03-14T06:51:31.201Z,9.74
2024-03-14T06:53:59.074Z,9.81
2024-03-14T06:56:26.711Z,9.87
2024-03-14T06:58:52.938Z,9.82
2024-03-14T07:01:19.395Z,9.87
2024-03-14T07:03:45.685Z,9.90
2024-03-14T07:06:12.217Z,9.99
2024-03-14T07:08:38.471Z,9.95
2024-03-14T07:11:04.766Z,9.97
2024-03-14T07:13:31.086Z,10.01
2024-03-14T07:15:57.366Z,10.05
2024-03-14T07:18:23.675Z,10.06
2024-03-14T07:20:50.250Z,10.18
2024-03-14T07:23:16.502Z,10.21
2024-03-14T07:25:42.821Z,10.35
2024-03-14T07:28:09.126Z,10.49
2024-03-14T07:30:35.399Z,10.38
2024-03-14T07:33:01.818Z,10.39
2024-03-14T07:35:28.347Z,10.44
2024-03-14T07:37:54.564Z,10.49
2024-03-14T07:40:20.861Z,10.47
2024-03-14T07:42:47.113Z,10.45
2024-03-14T07:45:13.358Z,10.39
2024-03-14T07:47:39.678Z,10.53
2024-03-14T07:50:05.879Z,10.59
2024-03-14T07:52:32.156Z,10.66
2024-03-14T07:54:58.331Z,10.72
2024-03-14T07:57:24.564Z,10.78
2024-03-14T07:59:50.808Z,10.94
2024-03-14T08:02:17.059Z,10.95
2024-03-14T08:04:43.297Z,11.04
2024-03-14T08:07:09.507Z,11.15
2024-03-14T08:09:35.800Z,11.17
2024-03-14T08:12:02.088Z,11.11
2024-03-14T08:14:28.384Z,11.27
2024-03-14T08:16:54.559Z,11.33
2024-03-14T08:19:20.877Z,11.51
2024-03-14T08:21:47.168Z,11.68
2024-03-14T08:24:14.056Z,11.68
2024-03-14T08:26:40.448Z,11.75
2024-03-14T08:29:06.738Z,11.87
2024-03-14T08:31:33.024Z,11.94
2024-03-14T08:33:59.398Z,11.96
2024-03-14T08:36:26.013Z,12.00
2024-03-14T08:38:52.470Z,11.97
2024-03-14T08:41:18.827Z,11.99
2024-03-14T08:43:45.074Z,12.06
2024-03-14T08:46:11.322Z,12.17
2024-03-14T08:48:37.799Z,12.20
2024-03-14T08:51:04.127Z,12.49
2024-03-14T08:53:30.387Z,12.55
2024-03-14T08:55:56.937Z,12.67
2024-03-14T08:58:23.472Z,12.75
2024-03-14T09:00:49.847Z,12.82
2024-03-14T09:03:16.162Z,12.95
2024-03-14T09:05:42.403Z,12.96
2024-03-14T09:08:08.750Z,12.99
2024-03-14T09:10:35.160Z,13.08
2024-03-14T09:13:01.497Z,13.08
2024-03-14T09:15:27.879Z,13.03
2024-03-14T09:17:54.218Z,13.23
2024-03-14T09:20:20.469Z,13.24
2024-03-14T09:22:46.938Z,13.28
2024-03-14T09:25:13.240Z,13.41
2024-03-14T09:27:39.540Z,13.49
2024-03-14T09:30:05.909Z,13.57
2024-03-14T09:32:32.127Z,13.59
2024-03-14T09:34:58.342Z,13.71
2024-03-14T09:37:24.554Z,13.67
2024-03-14T09:39:50.791Z,13.53
2024-03-14T09:42:17.022Z,13.56
2024-03-14T09:44:43.331Z,13.55
2024-03-14T09:47:09.692Z,13.61
2024-03-14T09:49:36.077Z,13.64
2024-03-14T09:52:02.281Z,13.65
2024-03-14T09:54:28.648Z,13.67
2024-03-14T09:56:54.985Z,13.61
2024-03-14T09:59:21.179Z,13.62
2024-03-14T10:01:47.406Z,13.66
2024-03-14T10:04:14.161Z,13.72
2024-03-14T10:06:40.588Z,13.81
2024-03-14T10:09:09.470Z,13.74
2024-03-14T10:11:38.245Z,13.70
2024-03-14T10:14:04.580Z,13.86
2024-03-14T10:16:30.817Z,13.91
2024-03-14T10:18:57.108Z,14.03
2024-03-14T10:21:23.551Z,14.09
2024-03-14T10:23:49.916Z,14.10
2024-03-14T10:26:16.219Z,14.19
2024-03-14T10:28:42.800Z,14.21
2024-03-14T10:31:09.353Z,14.30
2024-03-14T10:33:35.913Z,14.33
2024-03-14T10:36:02.584Z,14.16
2024-03-14T10:38:28.890Z,14.20
2024-03-14T10:40:55.088Z,14.38
2024-03-14T10:43:21.279Z,14.16
2024-03-14T10:45:47.662Z,14.27
2024-03-14T10:48:14.491Z,14.28
2024-03-14T10:50:40.964Z,14.23
2024-03-14T10:53:07.604Z,14.38
2024-03-14T10:55:33.955Z,14.51
2024-03-14T10:58:00.304Z,14.57
2024-03-14T11:00:26.564Z,14.77
2024-03-14T11:02:52.863Z,14.76
2024-03-14T11:05:19.141Z,14.77
2024-03-14T11:07:45.421Z,14.87
2024-03-14T11:10:11.651Z,14.88
2024-03-14T11:12:38.120Z,14.99
2024-03-14T11:15:04.455Z,15.00
2024-03-14T11:17:30.776Z,14.92
2024-03-14T11:19:57.096Z,14.95
2024-03-14T11:22:23.319Z,15.07
2024-03-14T11:24:49.545Z,15.25
2024-03-14T11:27:15.914Z,15.38
2024-03-14T11:29:42.180Z,15.50
2024-03-14T11:32:08.393Z,15.53
2024-03-14T11:34:34.728Z,15.68
2024-03-14T11:37:00.985Z,15.78
2024-03-14T11:39:27.269Z,15.81
2024-03-14T11:41:53.500Z,15.70
2024-03-14T11:44:19.799Z,15.52
2024-03-14T11:46:46.052Z,15.43
2024-03-14T11:49:12.256Z,15.43
2024-03-14T11:51:38.667Z,15.36
2024-03-14T11:54:05.046Z,15.25
2024-03-14T11:56:31.264Z,15.27
2024-03-14T11:58:57.549Z,15.29
2024-03-14T12:01:28.540Z,15.53
2024-03-14T12:03:59.874Z,15.75
2024-03-14T12:06:26.290Z,15.84
2024-03-14T12:08:52.651Z,15.88
2024-03-14T12:11:18.987Z,15.91
2024-03-14T12:13:45.210Z,15.95
2024-03-14T12:16:11.590Z,15.95
2024-03-14T12:18:37.840Z,16.02
2024-03-14T12:21:04.313Z,15.97
2024-03-14T12:23:31.111Z,15.93
2024-03-14T12:25:57.637Z,16.00
2024-03-14T12:28:23.927Z,16.00
2024-03-14T12:30:50.193Z,15.84
2024-03-14T12:33:16.675Z,15.99
2024-03-14T12:35:42.907Z,16.18
2024-03-14T12:38:09.201Z,16.26
2024-03-14T12:40:35.420Z,16.27
2024-03-14T12:43:01.603Z,16.26
2024-03-14T12:45:28.234Z,16.19
2024-03-14T12:47:54.596Z,16.15
2024-03-14T12:50:20.983Z,16.13
2024-03-14T12:52:47.213Z,16.25
2024-03-14T12:55:13.432Z,16.37
2024-03-14T12:57:39.721Z,16.26
2024-03-14T13:00:06.068Z,16.46
2024-03-14T13:02:32.497Z,16.55
2024-03-14T13:04:58.770Z,16.68
2024-03-14T13:07:25.155Z,16.59
2024-03-14T13:09:51.433Z,16.50
2024-03-14T13:12:17.701Z,16.38
2024-03-14T13:14:43.985Z,16.50
2024-03-14T13:17:10.244Z,16.54
2024-03-14T13:19:36.665Z,16.55
2024-03-14T13:22:03.275Z,16.53
2024-03-14T13:24:29.617Z,16.73
2024-03-14T13:26:56.021Z,16.81
2024-03-14T13:29:22.298Z,16.83
2024-03-14T13:31:48.600Z,16.76
2024-03-14T13:34:14.960Z,16.74
2024-03-14T13:36:41.344Z,16.77
2024-03-14T13:39:07.745Z,16.81
2024-03-14T13:41:34.091Z,16.93
2024-03-14T13:44:00.423Z,16.98
2024-03-14T13:46:26.720Z,16.99
2024-03-14T13:48:53.245Z,17.05
2024-03-14T13:51:19.667Z,17.00
2024-03-14T13:53:45.897Z,16.93
2024-03-14T13:56:12.115Z,17.13
2024-03-14T13:58:38.363Z,17.17
2024-03-14T14:01:04.643Z,17.35
2024-03-14T14:03:30.914Z,17.46
2024-03-14T14:05:57.800Z,17.53
2024-03-14T14:08:24.498Z,17.43
2024-03-14T14:10:50.750Z,17.56
2024-03-14T14:13:17.140Z,17.53
2024-03-14T14:15:43.536Z,17.67
2024-03-14T14:18:09.952Z,17.76
2024-03-14T14:20:36.283Z,17.83
2024-03-14T14:23:02.620Z,17.73
2024-03-14T14:25:28.919Z,17.88
2024-03-14T14:27:55.411Z,17.90
2024-03-14T14:30:21.809Z,17.93
2024-03-14T14:32:48.167Z,17.89
2024-03-14T14:35:14.460Z,17.70
2024-03-14T14:37:40.708Z,17.84
2024-03-14T14:40:06.994Z,18.02
2024-03-14T14:42:33.195Z,17.94
2024-03-14T14:44:59.556Z,17.93
2024-03-14T14:47:25.898Z,17.93
2024-03-14T14:49:52.150Z,17.96
2024-03-14T14:52:18.560Z,18.00
2024-03-14T14:54:44.865Z,17.95
2024-03-14T14:57:11.331Z,17.94
2024-03-14T14:59:37.556Z,18.00
2024-03-14T15:02:03.790Z,17.98
2024-03-14T15:04:30.131Z,18.16
2024-03-14T15:06:56.542Z,18.33
2024-03-14T15:09:23.013Z,18.52
2024-03-14T15:11:49.390Z,18.67
2024-03-14T15:14:15.652Z,18.67
2024-03-14T15:16:41.897Z,18.61
2024-03-14T15:19:08.278Z,18.72
2024-03-14T15:21:34.714Z,18.69
2024-03-14T15:24:01.001Z,18.88
2024-03-14T15:26:27.276Z,18.63
2024-03-14T15:28:53.551Z,18.66
2024-03-14T15:31:19.784Z,18.64
2024-03-14T15:33:46.156Z,18.64
2024-03-14T15:36:14.520Z,18.59
2024-03-14T15:38:42.129Z,18.70
2024-03-14T15:41:08.374Z,18.76
2024-03-14T15:43:34.698Z,18.86
2024-03-14T15:46:00.968Z,18.74
2024-03-14T15:48:27.246Z,18.66
2024-03-14T15:50:53.485Z,18.73
2024-03-14T15:53:19.765Z,18.73
2024-03-14T15:55:46.064Z,18.69
2024-03-14T15:58:12.254Z,18.65
2024-03-14T16:00:38.528Z,18.76
2024-03-14T16:03:05.070Z,18.77
2024-03-14T16:05:31.354Z,18.73
2024-03-14T16:07:57.653Z,18.73
2024-03-14T16:10:23.896Z,18.80
2024-03-14T16:12:50.130Z,18.77
2024-03-14T16:15:16.476Z,18.66
2024-03-14T16:17:42.977Z,18.65
2024-03-14T16:20:09.369Z,18.76
2024-03-14T16:22:35.608Z,18.74
2024-03-14T16:25:01.906Z,18.64
2024-03-14T16:27:28.174Z,18.54
2024-03-14T16:29:54.497Z,18.35
2024-03-14T16:32:20.714Z,18.31
2024-03-14T16:34:46.938Z,18.13
2024-03-14T16:37:13.236Z,17.95
2024-03-14T16:39:39.593Z,17.97
2024-03-14T16:42:05.854Z,17.79
2024-03-14T16:44:34.519Z,17.79
2024-03-14T16:47:02.079Z,17.60
2024-03-14T16:49:28.273Z,17.55
2024-03-14T16:51:54.642Z,17.58
2024-03-14T16:54:20.947Z,17.39
2024-03-14T16:56:47.244Z,17.34
2024-03-14T16:59:13.520Z,17.27
2024-03-14T17:01:39.883Z,17.16
2024-03-14T17:04:06.111Z,17.04
2024-03-14T17:06:32.396Z,17.04
2024-03-14T17:08:58.746Z,16.89
2024-03-14T17:11:25.365Z,16.66
2024-03-14T17:13:51.751Z,16.67
2024-03-14T17:16:18.003Z,16.39
2024-03-14T17:18:44.410Z,16.31
2024-03-14T17:21:10.813Z,16.25
2024-03-14T17:23:37.057Z,16.13
2024-03-14T17:26:03.285Z,16.02
2024-03-14T17:28:29.481Z,15.87
2024-03-14T17:30:55.729Z,15.76
2024-03-14T17:33:22.081Z,15.71
2024-03-14T17:35:48.324Z,15.59
2024-03-14T17:38:15.338Z,15.48
2024-03-14T17:40:41.608Z,15.42
2024-03-14T17:43:07.818Z,15.33
2024-03-14T17:45:34.222Z,15.31
2024-03-14T17:48:00.652Z,15.23
2024-03-14T17:50:27.001Z,15.08
2024-03-14T17:52:53.281Z,15.05
2024-03-14T17:55:19.814Z,14.97
2024-03-14T17:57:47.011Z,14.98
2024-03-14T18:00:13.638Z,14.92
2024-03-14T18:02:39.897Z,14.93
2024-03-14T18:05:06.210Z,14.75
2024-03-14T18:07:32.474Z,14.72
2024-03-14T18:09:58.828Z,14.70
2024-03-14T18:12:25.161Z,14.76
2024-03-14T18:14:51.472Z,14.69
2024-03-14T18:17:21.007Z,14.66
2024-03-14T18:19:48.748Z,14.54
2024-03-14T18:22:15.045Z,14.45
2024-03-14T18:24:41.358Z,14.36
2024-03-14T18:27:07.751Z,14.38
2024-03-14T18:29:33.968Z,14.38
2024-03-14T18:32:00.189Z,14.41
2024-03-14T18:34:26.470Z,14.44
2024-03-14T18:36:52.802Z,14.39
2024-03-14T18:39:19.448Z,14.36
2024-03-14T18:41:45.754Z,14.39
2024-03-14T18:44:12.207Z,14.38
2024-03-14T18:46:38.672Z,14.33
2024-03-14T18:49:11.900Z,14.38
2024-03-14T18:51:43.650Z,14.33
2024-03-14T18:54:09.887Z,14.28
2024-03-14T18:56:36.098Z,14.28
2024-03-14T18:59:02.307Z,14.27
2024-03-14T19:01:28.642Z,14.25
2024-03-14T19:03:54.910Z,14.25
2024-03-14T19:06:21.298Z,14.17
2024-03-14T19:08:47.558Z,14.16
2024-03-14T19:11:13.883Z,14.19
2024-03-14T19:13:40.144Z,14.02
2024-03-14T19:16:06.488Z,14.03
2024-03-14T19:18:32.834Z,14.01
2024-03-14T19:20:59.123Z,13.98
2024-03-14T19:23:25.427Z,13.98
2024-03-14T19:25:51.687Z,13.90
2024-03-14T19:28:18.081Z,13.85
2024-03-14T19:30:44.821Z,13.83
2024-03-14T19:33:11.228Z,13.83
2024-03-14T19:35:37.646Z,13.83
2024-03-14T19:38:03.951Z,13.85
2024-03-14T19:40:30.306Z,13.89
2024-03-14T19:42:56.588Z,13.87
2024-03-14T19:45:23.012Z,13.83
2024-03-14T19:47:49.301Z,13.78
2024-03-14T19:50:15.604Z,13.77
2024-03-14T19:52:41.830Z,13.70
2024-03-14T19:55:08.088Z,13.61
2024-03-14T19:57:34.462Z,13.69
2024-03-14T20:00:00.901Z,13.68
2024-03-14T20:02:27.415Z,13.55
2024-03-14T20:04:53.671Z,13.55
2024-03-14T20:07:19.944Z,13.49
2024-03-14T20:09:46.251Z,13.48
2024-03-14T20:12:12.691Z,13.49
2024-03-14T20:14:38.970Z,13.46
2024-03-14T20:17:05.239Z,13.46
2024-03-14T20:19:31.500Z,13.46
2024-03-14T20:21:57.934Z,13.41
2024-03-14T20:24:24.293Z,13.36
2024-03-14T20:26:50.558Z,13.36
2024-03-14T20:29:16.808Z,13.39
2024-03-14T20:31:43.133Z,13.40
2024-03-14T20:34:09.662Z,13.42
2024-03-14T20:36:36.028Z,13.43
2024-03-14T20:41:31.543Z,13.47
2024-03-14T20:43:57.910Z,13.47
2024-03-14T20:46:24.209Z,13.36
2024-03-14T20:48:51.349Z,13.39
2024-03-14T20:51:18.101Z,13.32
2024-03-14T20:53:44.408Z,13.35
2024-03-14T20:56:10.595Z,13.31
2024-03-14T20:58:36.833Z,13.35
2024-03-14T21:01:03.094Z,13.28
2024-03-14T21:03:29.385Z,13.31
2024-03-14T21:05:55.666Z,13.30
2024-03-14T21:08:22.023Z,13.24
2024-03-14T21:10:48.266Z,13.29
2024-03-14T21:13:14.519Z,13.31
2024-03-14T21:15:41.267Z,13.37
2024-03-14T21:18:08.286Z,13.26
2024-03-14T21:20:34.737Z,13.22
2024-03-14T21:23:01.179Z,13.17
2024-03-14T21:25:27.401Z,13.20
2024-03-14T21:27:53.775Z,13.20
2024-03-14T21:30:20.148Z,13.17
2024-03-14T21:32:46.418Z,13.18
2024-03-14T21:35:12.692Z,13.24
2024-03-14T21:37:39.106Z,13.16
2024-03-14T21:40:05.321Z,13.20
2024-03-14T21:42:31.532Z,13.19
2024-03-14T21:44:58.016Z,13.15
2024-03-14T21:47:24.232Z,13.14
2024-03-14T21:49:50.521Z,13.17
2024-03-14T21:52:16.777Z,13.20
2024-03-14T21:54:42.961Z,13.16
2024-03-14T21:57:09.238Z,13.18
2024-03-14T21:59:35.449Z,13.21
2024-03-14T22:02:01.794Z,13.16
2024-03-14T22:04:28.078Z,13.06
2024-03-14T22:06:54.373Z,13.14
2024-03-14T22:09:20.587Z,13.07
2024-03-14T22:11:46.929Z,13.01
2024-03-14T22:14:13.140Z,13.02
2024-03-14T22:16:39.362Z,13.04
2024-03-14T22:19:05.841Z,13.07
2024-03-14T22:21:32.107Z,13.04
2024-03-14T22:23:58.317Z,13.07
2024-03-14T22:26:24.521Z,13.12
2024-03-14T22:28:50.721Z,13.15
2024-03-14T22:31:16.977Z,13.17
2024-03-14T22:33:43.242Z,13.15
2024-03-14T22:36:09.688Z,13.17
2024-03-14T22:38:35.914Z,13.10
2024-03-14T22:41:03.074Z,13.13
2024-03-14T22:43:30.327Z,13.16
2024-03-14T22:45:56.685Z,13.07
2024-03-14T22:48:22.992Z,13.16
2024-03-14T22:50:49.514Z,13.08
2024-03-14T22:53:15.706Z,13.13
2024-03-14T22:55:42.031Z,13.06
2024-03-14T22:58:08.251Z,13.02
2024-03-14T23:00:34.672Z,13.00
2024-03-14T23:03:00.921Z,13.10
2024-03-14T23:05:27.255Z,13.14
2024-03-14T23:07:53.467Z,13.19
2024-03-14T23:10:20.086Z,13.26
2024-03-14T23:12:46.513Z,13.18
2024-03-14T23:15:12.853Z,13.19
2024-03-14T23:17:39.119Z,13.18
2024-03-14T23:20:05.374Z,13.20
2024-03-14T23:22:31.584Z,13.25
2024-03-14T23:24:57.807Z,13.27
2024-03-14T23:27:24.070Z,13.28
2024-03-14T23:29:50.307Z,13.33
2024-03-14T23:32:16.527Z,13.33
2024-03-14T23:34:42.879Z,13.34
2024-03-14T23:37:09.126Z,13.36
2024-03-14T23:39:35.352Z,13.41
2024-03-14T23:42:01.643Z,13.40
2024-03-14T23:44:27.837Z,13.41
2024-03-14T23:46:54.137Z,13.48
2024-03-14T23:49:20.479Z,13.49
2024-03-14T23:51:46.910Z,13.40
2024-03-14T23:54:13.296Z,13.36
2024-03-14T23:56:39.521Z,13.35
2024-03-14T23:59:05.739Z,13.30
